South Jackson, Virginia
Current Conditions -  °F | °C
As of 2:35 AM on Wednesday 22 Oct 2014 (Local Time) from K8W2 Reporting Station
Overcast Overcast  
Wind Chill: 51°   Ceiling: 2900
Heat Index: 51°   Visibility: 10mi
Dew Point: 44°   Wind: 0mph
Humidity: 76%   Direction: NA
Pressure: 29.93"   Gusts: NA
Location:  38.7716°N, 78.6966°W
Report Text: K8W2 220635Z AUTO 00000KT 10SM OVC029 11/07 A2993 RMK AO1 T01060065
Loading
Personal Weather Stations






























Interactive Weather Map
Tropical Storm Tracking
New forecast layout! Learn more

10-Day Weather Forecast

Advertisements
Track Severe Weather on mobile